Wetterdaten: Woche 06.11.23 - 12.11.23 (KW45)
Datum Zeit Temp. Aussen Temp. o. S. Temp +5cm Feuchte Auss Luftdruck Regen Sonnenschein Regendauer Solar Windben Empfang
06.11.2023 00:00 10,3 C 9,6 C 6,3 C 89 % 994,9 hPa 0,0 l/m 0,00 h 0,00 h 0 W/m 22,8 km/h (4 Bft) 97,92 %
06.11.2023 01:00 10,5 C 9,9 C 6,6 C 88 % 995,4 hPa 0,0 l/m 0,00 h 0,07 h 0 W/m 24,3 km/h (4 Bft) 96,62 %
06.11.2023 02:00 10,5 C 10,0 C 6,6 C 88 % 996,1 hPa 0,0 l/m 0,00 h 0,07 h 0 W/m 23,4 km/h (4 Bft) 98,08 %
06.11.2023 03:00 10,1 C 9,4 C 6,1 C 88 % 996,6 hPa 0,0 l/m 0,00 h 0,00 h 0 W/m 21,2 km/h (4 Bft) 98,44 %
06.11.2023 04:00 9,9 C 9,3 C 6,1 C 90 % 997,6 hPa 0,2 l/m 0,00 h 0,00 h 0 W/m 21,0 km/h (4 Bft) 95,97 %
06.11.2023 05:00 9,7 C 9,0 C 5,6 C 89 % 998,4 hPa 0,0 l/m 0,00 h 0,00 h 0 W/m 21,6 km/h (4 Bft) 99,06 %
06.11.2023 06:00 9,7 C 9,0 C 5,6 C 89 % 999,1 hPa 0,0 l/m 0,00 h 0,03 h 0 W/m 21,4 km/h (4 Bft) 96,61 %
06.11.2023 07:00 9,8 C 8,9 C 5,7 C 89 % 999,9 hPa 0,0 l/m 0,00 h 0,00 h 10 W/m 23,2 km/h (4 Bft) 95,41 %
06.11.2023 08:00 9,9 C 9,4 C 5,9 C 87 % 1000,7 hPa 0,0 l/m 0,00 h 0,00 h 33 W/m 24,4 km/h (4 Bft) 98,57 %
06.11.2023 09:00 10,5 C 10,4 C 6,6 C 85 % 1001,3 hPa 0,0 l/m 0,10 h 0,00 h 78 W/m 22,1 km/h (4 Bft) 95,88 %
06.11.2023 10:00 11,2 C 11,9 C 7,1 C 82 % 1001,7 hPa 0,0 l/m 0,13 h 0,00 h 106 W/m 23,8 km/h (4 Bft) 98,31 %
06.11.2023 11:00 12,1 C 11,8 C 7,9 C 79 % 1001,9 hPa 0,0 l/m 0,00 h 0,00 h 78 W/m 31,7 km/h (5 Bft) 98,11 %
06.11.2023 12:00 12,6 C 12,3 C 8,4 C 78 % 1002,0 hPa 0,0 l/m 0,00 h 0,00 h 132 W/m 29,9 km/h (5 Bft) 96,33 %
06.11.2023 13:00 12,8 C 12,6 C 8,5 C 77 % 1002,3 hPa 0,0 l/m 0,17 h 0,00 h 152 W/m 28,7 km/h (4 Bft) 99,85 %
06.11.2023 14:00 12,9 C 12,6 C 8,5 C 75 % 1002,3 hPa 0,0 l/m 0,42 h 0,00 h 163 W/m 32,7 km/h (5 Bft) 99,85 %
06.11.2023 15:00 12,8 C 12,3 C 8,4 C 74 % 1002,4 hPa 0,0 l/m 0,00 h 0,00 h 60 W/m 31,9 km/h (5 Bft) 98,54 %
06.11.2023 16:00 11,8 C 10,8 C 6,5 C 81 % 1003,1 hPa 0,2 l/m 0,00 h 0,50 h 10 W/m 24,7 km/h (4 Bft) 100,00 %
06.11.2023 17:00 10,0 C 9,2 C 5,0 C 90 % 1003,8 hPa 0,0 l/m 0,00 h 0,00 h 0 W/m 16,4 km/h (3 Bft) 98,90 %
06.11.2023 18:00 9,6 C 8,9 C 5,4 C 91 % 1004,6 hPa 0,0 l/m 0,00 h 0,00 h 0 W/m 19,8 km/h (4 Bft) 99,49 %
06.11.2023 19:00 9,5 C 8,6 C 5,4 C 90 % 1005,4 hPa 0,0 l/m 0,00 h 0,00 h 0 W/m 16,3 km/h (3 Bft) 97,45 %
06.11.2023 20:00 9,2 C 8,3 C 5,0 C 90 % 1006,0 hPa 0,0 l/m 0,00 h 0,00 h 0 W/m 14,4 km/h (3 Bft) 96,84 %
06.11.2023 21:00 9,1 C 8,3 C 5,0 C 91 % 1006,5 hPa 0,0 l/m 0,00 h 0,00 h 0 W/m 15,3 km/h (3 Bft) 96,65 %
06.11.2023 22:00 9,2 C 8,3 C 5,0 C 91 % 1006,9 hPa 0,0 l/m 0,00 h 0,00 h 0 W/m 17,6 km/h (3 Bft) 96,34 %
06.11.2023 23:00 9,0 C 8,2 C 5,0 C 91 % 1007,2 hPa 0,0 l/m 0,00 h 0,00 h 0 W/m 17,1 km/h (3 Bft) 97,03 %
07.11.2023 00:00 9,2 C 8,3 C 5,0 C 92 % 1007,6 hPa 0,0 l/m 0,00 h 0,00 h 0 W/m 18,1 km/h (3 Bft) 95,33 %
07.11.2023 01:00 9,2 C 8,2 C 5,0 C 91 % 1008,1 hPa 0,0 l/m 0,00 h 0,00 h 0 W/m 16,4 km/h (3 Bft) 98,22 %
07.11.2023 02:00 8,5 C 7,5 C 4,5 C 93 % 1008,4 hPa 0,0 l/m 0,00 h 0,00 h 0 W/m 9,8 km/h (2 Bft) 97,40 %
07.11.2023 03:00 8,0 C 6,9 C 3,8 C 93 % 1008,5 hPa 0,0 l/m 0,00 h 0,00 h 0 W/m 1,9 km/h (1 Bft) 95,80 %
07.11.2023 04:00 7,4 C 6,6 C 3,5 C 94 % 1008,5 hPa 0,0 l/m 0,00 h 0,00 h 0 W/m 1,2 km/h (1 Bft) 96,94 %
07.11.2023 05:00 7,9 C 7,5 C 4,3 C 95 % 1008,6 hPa 0,0 l/m 0,00 h 0,00 h 0 W/m 9,1 km/h (2 Bft) 96,93 %
07.11.2023 06:00 8,3 C 7,5 C 4,6 C 94 % 1008,6 hPa 0,0 l/m 0,00 h 0,00 h 0 W/m 3,1 km/h (1 Bft) 97,20 %
07.11.2023 07:00 8,2 C 7,3 C 4,4 C 94 % 1008,8 hPa 0,0 l/m 0,00 h 0,00 h 6 W/m 8,2 km/h (2 Bft) 94,60 %
07.11.2023 08:00 8,4 C 8,0 C 4,9 C 94 % 1009,3 hPa 0,0 l/m 0,00 h 0,00 h 37 W/m 12,1 km/h (2 Bft) 98,80 %
07.11.2023 09:00 9,4 C 9,1 C 5,8 C 92 % 1009,8 hPa 0,0 l/m 0,00 h 0,00 h 71 W/m 18,7 km/h (3 Bft) 97,94 %
07.11.2023 10:00 10,2 C 10,1 C 6,6 C 89 % 1010,4 hPa 0,0 l/m 0,00 h 0,00 h 104 W/m 20,0 km/h (4 Bft) 95,53 %
07.11.2023 11:00 10,9 C 10,7 C 7,0 C 86 % 1010,6 hPa 0,0 l/m 0,00 h 0,00 h 105 W/m 19,4 km/h (3 Bft) 98,72 %
07.11.2023 12:00 11,4 C 11,5 C 7,4 C 83 % 1010,5 hPa 0,0 l/m 0,20 h 0,00 h 157 W/m 23,9 km/h (4 Bft) 97,00 %
07.11.2023 13:00 11,3 C 11,0 C 7,2 C 82 % 1010,5 hPa 0,0 l/m 0,07 h 0,00 h 116 W/m 22,5 km/h (4 Bft) 96,84 %
07.11.2023 14:00 11,2 C 11,0 C 7,2 C 83 % 1010,5 hPa 0,0 l/m 0,40 h 0,00 h 141 W/m 18,0 km/h (3 Bft) 98,43 %
07.11.2023 15:00 11,0 C 10,6 C 6,8 C 82 % 1010,9 hPa 0,0 l/m 0,03 h 0,00 h 66 W/m 15,2 km/h (3 Bft) 94,85 %
07.11.2023 16:00 10,4 C 9,7 C 6,3 C 83 % 1011,1 hPa 0,0 l/m 0,00 h 0,00 h 10 W/m 15,5 km/h (3 Bft) 97,58 %
07.11.2023 17:00 10,1 C 9,4 C 6,0 C 84 % 1011,3 hPa 0,0 l/m 0,00 h 0,00 h 0 W/m 14,8 km/h (3 Bft) 95,75 %
07.11.2023 18:00 9,4 C 8,5 C 5,3 C 86 % 1011,5 hPa 0,0 l/m 0,00 h 0,00 h 0 W/m 15,8 km/h (3 Bft) 95,37 %
07.11.2023 19:00 8,7 C 7,8 C 4,6 C 88 % 1011,6 hPa 0,0 l/m 0,00 h 0,00 h 0 W/m 15,2 km/h (3 Bft) 96,40 %
07.11.2023 20:00 8,4 C 7,8 C 4,4 C 90 % 1011,7 hPa 0,0 l/m 0,00 h 0,00 h 0 W/m 17,5 km/h (3 Bft) 96,73 %
07.11.2023 21:00 8,2 C 7,3 C 4,4 C 91 % 1011,9 hPa 0,0 l/m 0,00 h 0,00 h 0 W/m 15,9 km/h (3 Bft) 94,54 %
07.11.2023 22:00 8,3 C 7,8 C 4,4 C 90 % 1012,0 hPa 0,0 l/m 0,00 h 0,00 h 0 W/m 18,6 km/h (3 Bft) 99,28 %
07.11.2023 23:00 8,6 C 7,8 C 4,9 C 89 % 1012,0 hPa 0,0 l/m 0,00 h 0,00 h 0 W/m 20,1 km/h (4 Bft) 96,87 %
08.11.2023 00:00 8,6 C 7,8 C 4,3 C 90 % 1012,2 hPa 0,0 l/m 0,00 h 0,40 h 0 W/m 16,5 km/h (3 Bft) 97,20 %
08.11.2023 01:00 8,5 C 7,8 C 4,4 C 91 % 1012,4 hPa 0,0 l/m 0,00 h 0,13 h 0 W/m 14,3 km/h (3 Bft) 97,25 %
08.11.2023 02:00 8,6 C 7,8 C 4,8 C 91 % 1012,7 hPa 0,0 l/m 0,00 h 0,00 h 0 W/m 16,2 km/h (3 Bft) 98,42 %
08.11.2023 03:00 8,6 C 7,8 C 4,8 C 90 % 1012,9 hPa 0,0 l/m 0,00 h 0,00 h 0 W/m 11,5 km/h (2 Bft) 96,66 %
08.11.2023 04:00 8,6 C 7,8 C 4,8 C 89 % 1013,1 hPa 0,0 l/m 0,00 h 0,00 h 0 W/m 13,3 km/h (3 Bft) 96,17 %
08.11.2023 05:00 8,1 C 7,2 C 4,1 C 90 % 1013,3 hPa 0,0 l/m 0,00 h 0,00 h 0 W/m 14,5 km/h (3 Bft) 99,02 %
08.11.2023 06:00 7,7 C 6,9 C 3,9 C 91 % 1013,3 hPa 0,0 l/m 0,00 h 0,00 h 0 W/m 15,1 km/h (3 Bft) 95,38 %
08.11.2023 07:00 7,9 C 7,2 C 4,0 C 91 % 1013,6 hPa 0,0 l/m 0,00 h 0,00 h 8 W/m 15,8 km/h (3 Bft) 98,35 %
08.11.2023 08:00 8,2 C 7,7 C 4,4 C 92 % 1013,9 hPa 0,0 l/m 0,00 h 0,00 h 26 W/m 14,1 km/h (3 Bft) 98,04 %
08.11.2023 09:00 9,0 C 8,8 C 5,1 C 90 % 1014,0 hPa 0,0 l/m 0,30 h 0,00 h 93 W/m 17,9 km/h (3 Bft) 95,85 %
08.11.2023 10:00 10,3 C 11,5 C 6,5 C 84 % 1014,1 hPa 0,0 l/m 0,37 h 0,00 h 167 W/m 25,6 km/h (4 Bft) 97,66 %
08.11.2023 11:00 10,7 C 10,7 C 6,7 C 81 % 1013,9 hPa 0,0 l/m 0,00 h 0,00 h 124 W/m 23,1 km/h (4 Bft) 97,05 %
08.11.2023 12:00 11,1 C 11,1 C 6,9 C 79 % 1013,3 hPa 0,0 l/m 0,03 h 0,00 h 151 W/m 23,2 km/h (4 Bft) 94,41 %
08.11.2023 13:00 11,5 C 11,4 C 7,2 C 76 % 1012,8 hPa 0,0 l/m 0,00 h 0,00 h 125 W/m 23,0 km/h (4 Bft) 95,65 %
08.11.2023 14:00 11,4 C 11,0 C 7,2 C 75 % 1012,3 hPa 0,0 l/m 0,00 h 0,00 h 67 W/m 22,1 km/h (4 Bft) 96,28 %
08.11.2023 15:00 11,3 C 10,6 C 6,9 C 76 % 1011,5 hPa 0,0 l/m 0,00 h 0,03 h 33 W/m 18,4 km/h (3 Bft) 97,22 %
08.11.2023 16:00 10,6 C 9,9 C 6,2 C 80 % 1010,6 hPa 0,0 l/m 0,00 h 0,17 h 13 W/m 15,5 km/h (3 Bft) 96,59 %
08.11.2023 17:00 10,0 C 9,0 C 5,2 C 84 % 1009,7 hPa 0,8 l/m 0,00 h 0,72 h 0 W/m 13,7 km/h (3 Bft) 96,73 %
08.11.2023 18:00 9,3 C 8,4 C 4,2 C 90 % 1009,2 hPa 0,0 l/m 0,00 h 0,10 h 0 W/m 15,2 km/h (3 Bft) 96,92 %
08.11.2023 19:00 9,3 C 8,5 C 4,4 C 91 % 1008,6 hPa 0,2 l/m 0,00 h 0,27 h 0 W/m 13,2 km/h (3 Bft) 97,52 %
08.11.2023 20:00 9,2 C 8,3 C 4,4 C 94 % 1008,1 hPa 1,0 l/m 0,00 h 0,75 h 0 W/m 11,1 km/h (2 Bft) 96,85 %
08.11.2023 21:00 9,1 C 8,2 C 4,8 C 96 % 1007,7 hPa 1,6 l/m 0,00 h 0,68 h 0 W/m 9,0 km/h (2 Bft) 97,49 %
08.11.2023 22:00 9,3 C 8,5 C 5,0 C 97 % 1007,1 hPa 1,2 l/m 0,00 h 0,83 h 0 W/m 8,5 km/h (2 Bft) 96,99 %
08.11.2023 23:00 9,5 C 8,7 C 5,2 C 97 % 1006,3 hPa 1,4 l/m 0,00 h 0,57 h 0 W/m 13,9 km/h (3 Bft) 98,29 %
09.11.2023 00:00 9,6 C 8,9 C 5,6 C 97 % 1005,5 hPa 1,2 l/m 0,00 h 0,47 h 0 W/m 12,5 km/h (3 Bft) 91,66 %
09.11.2023 01:00 9,6 C 8,5 C 5,6 C 97 % 1004,8 hPa 1,8 l/m 0,00 h 0,83 h 0 W/m 9,6 km/h (2 Bft) 98,37 %
09.11.2023 02:00 9,5 C 8,6 C 5,6 C 97 % 1003,9 hPa 0,2 l/m 0,00 h 0,42 h 0 W/m 8,9 km/h (2 Bft) 97,34 %
09.11.2023 03:00 9,7 C 9,1 C 5,6 C 98 % 1003,1 hPa 0,0 l/m 0,00 h 0,00 h 0 W/m 12,6 km/h (3 Bft) 95,37 %
09.11.2023 04:00 10,2 C 9,5 C 5,8 C 96 % 1002,5 hPa 0,0 l/m 0,00 h 0,00 h 0 W/m 18,6 km/h (3 Bft) 98,95 %
09.11.2023 05:00 10,5 C 10,0 C 6,1 C 93 % 1002,3 hPa 0,0 l/m 0,00 h 0,00 h 0 W/m 22,3 km/h (4 Bft) 94,36 %
09.11.2023 06:00 10,4 C 9,5 C 5,9 C 93 % 1002,1 hPa 0,2 l/m 0,00 h 0,47 h 0 W/m 23,1 km/h (4 Bft) 97,72 %
09.11.2023 07:00 9,9 C 8,9 C 5,6 C 95 % 1002,3 hPa 0,6 l/m 0,00 h 0,57 h 0 W/m 16,7 km/h (3 Bft) 97,23 %
09.11.2023 08:00 9,6 C 8,9 C 5,8 C 97 % 1002,9 hPa 0,6 l/m 0,00 h 0,35 h 25 W/m 13,0 km/h (3 Bft) 98,47 %
09.11.2023 09:00 9,4 C 9,1 C 5,6 C 97 % 1003,1 hPa 0,0 l/m 0,00 h 0,00 h 48 W/m 13,3 km/h (3 Bft) 96,65 %
09.11.2023 10:00 9,8 C 9,5 C 5,8 C 95 % 1003,2 hPa 0,0 l/m 0,00 h 0,00 h 89 W/m 14,2 km/h (3 Bft) 97,66 %
09.11.2023 11:00 10,1 C 9,8 C 6,0 C 93 % 1003,3 hPa 0,0 l/m 0,00 h 0,10 h 113 W/m 15,4 km/h (3 Bft) 97,82 %
09.11.2023 12:00 10,4 C 10,4 C 6,1 C 91 % 1003,0 hPa 0,0 l/m 0,00 h 0,00 h 127 W/m 18,6 km/h (3 Bft) 97,09 %
09.11.2023 13:00 11,0 C 11,4 C 6,0 C 87 % 1002,6 hPa 0,0 l/m 0,70 h 0,00 h 227 W/m 16,3 km/h (3 Bft) 97,45 %
09.11.2023 14:00 11,5 C 11,6 C 6,9 C 82 % 1002,2 hPa 0,0 l/m 0,63 h 0,00 h 170 W/m 22,5 km/h (4 Bft) 98,15 %
09.11.2023 15:00 11,3 C 10,9 C 7,2 C 84 % 1001,5 hPa 0,0 l/m 0,27 h 0,00 h 71 W/m 14,8 km/h (3 Bft) 95,38 %
09.11.2023 16:00 10,9 C 10,4 C 6,9 C 84 % 1000,8 hPa 0,0 l/m 0,47 h 0,00 h 35 W/m 12,6 km/h (3 Bft) 99,36 %
09.11.2023 17:00 10,6 C 10,0 C 6,7 C 83 % 1000,1 hPa 0,0 l/m 0,00 h 0,00 h 0 W/m 11,6 km/h (2 Bft) 95,95 %
09.11.2023 18:00 10,5 C 9,8 C 6,2 C 84 % 999,7 hPa 0,4 l/m 0,00 h 0,37 h 0 W/m 11,8 km/h (2 Bft) 97,83 %
09.11.2023 19:00 9,6 C 8,5 C 4,8 C 90 % 999,1 hPa 0,4 l/m 0,00 h 0,60 h 0 W/m 19,7 km/h (3 Bft) 98,23 %
09.11.2023 20:00 8,3 C 7,0 C 4,0 C 93 % 999,4 hPa 0,4 l/m 0,00 h 0,80 h 0 W/m 22,1 km/h (4 Bft) 94,25 %
09.11.2023 21:00 7,7 C 7,0 C 3,6 C 94 % 999,4 hPa 0,0 l/m 0,00 h 0,00 h 0 W/m 16,8 km/h (3 Bft) 97,76 %
09.11.2023 22:00 7,6 C 6,9 C 3,3 C 92 % 999,5 hPa 0,0 l/m 0,00 h 0,00 h 0 W/m 20,2 km/h (4 Bft) 97,18 %
09.11.2023 23:00 7,3 C 6,6 C 3,1 C 92 % 999,1 hPa 0,0 l/m 0,00 h 0,00 h 0 W/m 12,1 km/h (2 Bft) 98,58 %
10.11.2023 00:00 7,0 C 6,4 C 2,8 C 92 % 999,0 hPa 0,0 l/m 0,00 h 0,00 h 0 W/m 12,0 km/h (2 Bft) 95,61 %
10.11.2023 01:00 7,3 C 6,7 C 3,2 C 92 % 998,4 hPa 0,0 l/m 0,00 h 0,00 h 0 W/m 7,5 km/h (2 Bft) 98,64 %
10.11.2023 02:00 7,8 C 7,2 C 4,0 C 91 % 998,0 hPa 0,0 l/m 0,00 h 0,00 h 0 W/m 17,4 km/h (3 Bft) 98,32 %
10.11.2023 03:00 8,1 C 7,5 C 4,4 C 89 % 997,6 hPa 0,0 l/m 0,00 h 0,00 h 0 W/m 17,7 km/h (3 Bft) 95,55 %
10.11.2023 04:00 8,2 C 7,8 C 4,4 C 88 % 997,5 hPa 0,0 l/m 0,00 h 0,00 h 0 W/m 21,8 km/h (4 Bft) 98,02 %
10.11.2023 05:00 8,1 C 7,4 C 4,4 C 88 % 997,6 hPa 0,0 l/m 0,00 h 0,03 h 0 W/m 22,2 km/h (4 Bft) 97,93 %
10.11.2023 06:00 8,1 C 7,2 C 4,4 C 88 % 997,6 hPa 0,0 l/m 0,00 h 0,00 h 0 W/m 21,2 km/h (4 Bft) 95,82 %
10.11.2023 07:00 7,9 C 7,2 C 4,2 C 87 % 998,0 hPa 0,0 l/m 0,00 h 0,00 h 6 W/m 20,8 km/h (4 Bft) 98,45 %
10.11.2023 08:00 7,7 C 7,3 C 4,0 C 87 % 998,3 hPa 0,0 l/m 0,00 h 0,00 h 30 W/m 19,2 km/h (3 Bft) 97,39 %
10.11.2023 09:00 8,5 C 8,7 C 4,8 C 86 % 998,1 hPa 0,0 l/m 0,60 h 0,00 h 120 W/m 22,8 km/h (4 Bft) 96,59 %
10.11.2023 10:00 9,8 C 11,5 C 6,0 C 82 % 998,1 hPa 0,0 l/m 0,83 h 0,00 h 220 W/m 30,8 km/h (5 Bft) 98,93 %
10.11.2023 11:00 10,2 C 10,1 C 6,3 C 79 % 997,8 hPa 0,0 l/m 0,43 h 0,03 h 122 W/m 24,9 km/h (4 Bft) 95,61 %
10.11.2023 12:00 9,4 C 8,9 C 5,4 C 82 % 997,5 hPa 0,0 l/m 0,00 h 0,03 h 56 W/m 25,1 km/h (4 Bft) 97,54 %
10.11.2023 13:00 9,5 C 9,2 C 5,6 C 81 % 997,3 hPa 0,0 l/m 0,00 h 0,13 h 94 W/m 31,1 km/h (5 Bft) 98,36 %
10.11.2023 14:00 8,6 C 7,9 C 4,1 C 90 % 997,5 hPa 0,2 l/m 0,00 h 0,80 h 51 W/m 20,8 km/h (4 Bft) 96,24 %
10.11.2023 15:00 8,3 C 7,5 C 3,9 C 94 % 997,5 hPa 1,0 l/m 0,00 h 0,77 h 28 W/m 11,8 km/h (2 Bft) 95,98 %
10.11.2023 16:00 8,0 C 7,2 C 3,9 C 95 % 997,6 hPa 0,2 l/m 0,00 h 0,33 h 12 W/m 11,9 km/h (2 Bft) 97,94 %
10.11.2023 17:00 7,8 C 7,2 C 3,9 C 96 % 997,8 hPa 0,2 l/m 0,00 h 0,20 h 0 W/m 5,9 km/h (2 Bft) 95,41 %
10.11.2023 18:00 7,7 C 7,0 C 3,8 C 96 % 997,6 hPa 0,0 l/m 0,00 h 0,10 h 0 W/m 3,2 km/h (1 Bft) 97,93 %
10.11.2023 19:00 7,5 C 6,7 C 3,6 C 96 % 997,4 hPa 0,4 l/m 0,00 h 0,37 h 0 W/m 3,5 km/h (1 Bft) 96,72 %
10.11.2023 20:00 7,6 C 6,7 C 3,9 C 97 % 996,9 hPa 0,4 l/m 0,00 h 0,43 h 0 W/m 2,5 km/h (1 Bft) 98,94 %
10.11.2023 21:00 7,6 C 6,9 C 3,9 C 97 % 996,7 hPa 0,6 l/m 0,00 h 0,40 h 0 W/m 4,3 km/h (1 Bft) 95,40 %
10.11.2023 22:00 7,1 C 6,2 C 3,2 C 97 % 997,4 hPa 1,4 l/m 0,00 h 0,93 h 0 W/m 11,7 km/h (2 Bft) 99,43 %
10.11.2023 23:00 6,1 C 5,4 C 2,2 C 97 % 998,2 hPa 1,2 l/m 0,00 h 0,97 h 0 W/m 9,2 km/h (2 Bft) 96,31 %
11.11.2023 00:00 6,2 C 5,6 C 2,8 C 97 % 999,1 hPa 0,0 l/m 0,00 h 0,00 h 0 W/m 2,4 km/h (1 Bft) 96,32 %
11.11.2023 01:00 6,8 C 6,1 C 3,3 C 98 % 999,6 hPa 0,0 l/m 0,00 h 0,00 h 0 W/m 6,8 km/h (2 Bft) 98,40 %
11.11.2023 02:00 6,7 C 6,0 C 3,2 C 98 % 1000,3 hPa 0,0 l/m 0,00 h 0,00 h 0 W/m 7,2 km/h (2 Bft) 96,61 %
11.11.2023 03:00 6,4 C 5,7 C 2,9 C 98 % 1001,0 hPa 0,0 l/m 0,00 h 0,00 h 0 W/m 7,8 km/h (2 Bft) 96,99 %
11.11.2023 04:00 6,3 C 5,8 C 2,8 C 98 % 1001,6 hPa 0,2 l/m 0,00 h 0,10 h 0 W/m 11,1 km/h (2 Bft) 97,47 %
11.11.2023 05:00 6,3 C 5,8 C 2,8 C 98 % 1002,4 hPa 0,0 l/m 0,00 h 0,00 h 0 W/m 11,3 km/h (2 Bft) 98,72 %
11.11.2023 06:00 6,5 C 6,1 C 2,9 C 97 % 1003,3 hPa 0,0 l/m 0,00 h 0,13 h 0 W/m 10,7 km/h (2 Bft) 94,45 %
11.11.2023 07:00 6,2 C 5,6 C 2,8 C 97 % 1003,8 hPa 0,0 l/m 0,00 h 0,00 h 6 W/m 9,7 km/h (2 Bft) 96,91 %
11.11.2023 08:00 5,8 C 5,6 C 2,6 C 97 % 1004,4 hPa 0,0 l/m 0,00 h 0,00 h 30 W/m 12,9 km/h (3 Bft) 98,44 %
11.11.2023 09:00 6,2 C 6,0 C 2,8 C 97 % 1004,8 hPa 0,0 l/m 0,00 h 0,00 h 62 W/m 13,6 km/h (3 Bft) 96,41 %
11.11.2023 10:00 6,7 C 6,7 C 3,2 C 96 % 1005,3 hPa 0,0 l/m 0,00 h 0,00 h 81 W/m 15,2 km/h (3 Bft) 97,66 %
11.11.2023 11:00 7,7 C 7,7 C 3,6 C 93 % 1005,5 hPa 0,0 l/m 0,00 h 0,00 h 55 W/m 15,5 km/h (3 Bft) 98,44 %
11.11.2023 12:00 8,7 C 8,5 C 4,8 C 89 % 1005,5 hPa 0,0 l/m 0,03 h 0,00 h 120 W/m 16,6 km/h (3 Bft) 97,03 %
11.11.2023 13:00 9,3 C 9,7 C 5,9 C 85 % 1005,7 hPa 0,2 l/m 0,63 h 0,00 h 275 W/m 16,2 km/h (3 Bft) 98,07 %
11.11.2023 14:00 9,6 C 9,9 C 5,9 C 83 % 1005,9 hPa 0,0 l/m 0,67 h 0,00 h 176 W/m 13,3 km/h (3 Bft) 97,60 %
11.11.2023 15:00 9,5 C 9,0 C 5,5 C 83 % 1006,3 hPa 0,0 l/m 0,13 h 0,00 h 46 W/m 11,5 km/h (2 Bft) 96,81 %
11.11.2023 16:00 8,7 C 7,8 C 4,5 C 86 % 1006,6 hPa 0,0 l/m 0,00 h 0,00 h 14 W/m 8,0 km/h (2 Bft) 97,64 %
11.11.2023 17:00 7,7 C 6,7 C 3,5 C 88 % 1007,1 hPa 0,0 l/m 0,00 h 0,00 h 0 W/m 4,1 km/h (1 Bft) 97,88 %
11.11.2023 18:00 6,7 C 5,7 C 2,4 C 91 % 1007,4 hPa 0,0 l/m 0,00 h 0,00 h 0 W/m 1,5 km/h (1 Bft) 97,22 %
11.11.2023 19:00 6,1 C 5,2 C 2,2 C 93 % 1007,6 hPa 0,0 l/m 0,00 h 0,00 h 0 W/m 5,0 km/h (1 Bft) 97,11 %
11.11.2023 20:00 5,7 C 4,7 C 2,2 C 94 % 1007,8 hPa 0,0 l/m 0,00 h 0,00 h 0 W/m 8,5 km/h (2 Bft) 99,11 %
11.11.2023 21:00 5,1 C 4,4 C 1,8 C 95 % 1007,7 hPa 0,0 l/m 0,00 h 0,00 h 0 W/m 6,4 km/h (2 Bft) 96,45 %
11.11.2023 22:00 4,8 C 4,0 C 1,7 C 95 % 1007,4 hPa 0,0 l/m 0,00 h 0,00 h 0 W/m 4,4 km/h (1 Bft) 95,27 %
11.11.2023 23:00 4,6 C 3,9 C 1,5 C 96 % 1007,3 hPa 0,0 l/m 0,00 h 0,00 h 0 W/m 5,0 km/h (1 Bft) 98,30 %
12.11.2023 00:00 4,4 C 3,9 C 1,4 C 96 % 1007,1 hPa 0,0 l/m 0,00 h 0,00 h 0 W/m 4,3 km/h (1 Bft) 97,82 %
12.11.2023 01:00 4,3 C 3,5 C 1,2 C 97 % 1006,6 hPa 0,0 l/m 0,00 h 0,00 h 0 W/m 2,7 km/h (1 Bft) 96,97 %
12.11.2023 02:00 3,8 C 3,0 C 0,7 C 97 % 1006,5 hPa 0,0 l/m 0,00 h 0,00 h 0 W/m 1,2 km/h (1 Bft) 94,92 %
12.11.2023 03:00 3,1 C 2,2 C 0,0 C 97 % 1006,5 hPa 0,0 l/m 0,00 h 0,00 h 0 W/m 0,0 km/h (0 Bft) 98,63 %
12.11.2023 04:00 2,6 C 1,7 C -0,1 C 97 % 1006,4 hPa 0,0 l/m 0,00 h 0,00 h 0 W/m 0,3 km/h (0 Bft) 97,53 %
12.11.2023 05:00 2,7 C 2,1 C 0,1 C 97 % 1006,1 hPa 0,0 l/m 0,00 h 0,00 h 0 W/m 0,3 km/h (0 Bft) 96,75 %
12.11.2023 06:00 3,1 C 2,6 C 0,6 C 97 % 1006,3 hPa 0,0 l/m 0,00 h 0,00 h 0 W/m 1,9 km/h (1 Bft) 97,27 %
12.11.2023 07:00 3,1 C 2,6 C 0,6 C 98 % 1006,6 hPa 0,0 l/m 0,00 h 0,00 h 5 W/m 3,0 km/h (1 Bft) 98,06 %
12.11.2023 08:00 3,1 C 2,7 C 0,6 C 98 % 1007,0 hPa 0,0 l/m 0,00 h 0,00 h 17 W/m 4,0 km/h (1 Bft) 94,29 %
12.11.2023 09:00 4,0 C 4,0 C 1,3 C 98 % 1007,4 hPa 0,0 l/m 0,33 h 0,00 h 97 W/m 5,4 km/h (1 Bft) 97,21 %
12.11.2023 10:00 5,7 C 9,4 C 2,4 C 98 % 1007,6 hPa 0,0 l/m 0,37 h 0,00 h 123 W/m 5,8 km/h (1 Bft) 99,48 %
12.11.2023 11:00 6,4 C 6,7 C 3,4 C 96 % 1007,5 hPa 0,0 l/m 0,00 h 0,00 h 68 W/m 5,1 km/h (1 Bft) 95,04 %
12.11.2023 12:00 7,6 C 7,8 C 4,3 C 92 % 1007,5 hPa 0,0 l/m 0,00 h 0,00 h 81 W/m 6,1 km/h (2 Bft) 97,12 %
12.11.2023 13:00 8,3 C 8,3 C 4,9 C 89 % 1007,8 hPa 0,0 l/m 0,13 h 0,00 h 124 W/m 5,4 km/h (1 Bft) 98,31 %
12.11.2023 14:00 8,4 C 8,2 C 4,5 C 90 % 1007,6 hPa 0,0 l/m 0,17 h 0,00 h 99 W/m 3,3 km/h (1 Bft) 95,80 %
12.11.2023 15:00 8,2 C 7,3 C 4,0 C 90 % 1007,7 hPa 0,0 l/m 0,00 h 0,00 h 51 W/m 0,9 km/h (0 Bft) 98,38 %
12.11.2023 16:00 7,8 C 6,3 C 3,2 C 90 % 1008,0 hPa 0,0 l/m 0,00 h 0,00 h 19 W/m 0,0 km/h (0 Bft) 97,65 %
12.11.2023 17:00 7,0 C 5,5 C 2,6 C 90 % 1008,4 hPa 0,2 l/m 0,00 h 0,00 h 0 W/m 0,0 km/h (0 Bft) 96,35 %
12.11.2023 18:00 6,3 C 5,0 C 2,4 C 91 % 1008,5 hPa 0,0 l/m 0,00 h 0,00 h 0 W/m 0,0 km/h (0 Bft) 97,82 %
12.11.2023 19:00 6,4 C 5,9 C 3,1 C 94 % 1008,8 hPa 0,0 l/m 0,00 h 0,00 h 0 W/m 1,8 km/h (1 Bft) 99,25 %
12.11.2023 20:00 6,3 C 5,4 C 2,8 C 94 % 1008,9 hPa 0,0 l/m 0,00 h 0,00 h 0 W/m 2,3 km/h (1 Bft) 96,34 %
12.11.2023 21:00 5,5 C 4,6 C 2,2 C 94 % 1009,3 hPa 0,0 l/m 0,00 h 0,00 h 0 W/m 0,6 km/h (0 Bft) 97,67 %
12.11.2023 22:00 5,0 C 4,2 C 1,7 C 95 % 1009,2 hPa 0,0 l/m 0,00 h 0,00 h 0 W/m 1,4 km/h (1 Bft) 97,82 %
12.11.2023 23:00 4,7 C 3,9 C 1,7 C 95 % 1009,5 hPa 0,0 l/m 0,00 h 0,00 h 0 W/m 0,6 km/h (0 Bft) 97,15 %
Min-Datum _ 12.11.23 12.11.23 12.11.23 06.11.23 06.11.23 - - - - 07.11.23 09.11.23
_ Min-Zeit 05:00 04:00 04:06 14:45 00:00 - - - - 02:52 00:02
Minimum _ 2,4 C 1,7 C -0,6 C 73 % 994,5 hPa - - - - 0,0 km/h (0 Bft) 14,29 %
Max-Datum _ 06.11.23 08.11.23 06.11.23 09.11.23 08.11.23 09.11.23 06.11.23 06.11.23 11.11.23 06.11.23 06.11.23
_ Max-Zeit 14:45 10:20 12:30 03:06 10:16 01:12 13:25 16:20 13:36 11:24 00:07
Maximum _ 13,1 C 16,1 C 8,9 C 98 % 1014,1 hPa 1,8 l/m 0,08 h 0,08 h 464 W/m 57,9 km/h
S-SO (7 Bft)
100,00 %
Durchschnitt _ 8,5 C 7,9 C 4,6 C 90 % 1005,0 hPa #18,6 l/m #8:37 h #16:07 h 82 W/m 13,8 km/h (3 Bft) 97,19 %
© 2023 W. Hausmann